Back to provider search

HCPCS Code detail

J9035

Injection, bevacizumab, 10 mg

Latest data year CY2023

Ranking basis

Providers are ordered to identify the highest Medicare FFS volume for this code. Higher volume is a utilization signal only and is not presented as a quality, outcomes, or appropriateness measure.

Providers billing code1,818Distinct nationwide ophthalmology providers in Medicare FFS
Services for code446,483Total selected-code Medicare FFS services
Beneficiaries120,336Beneficiaries tied to selected-code rows
Average allowedBy providerDisplayed per row from Medicare allowed amount

Code-specific provider rankings

Filter by state or city, then sort providers by selected-code utilization, beneficiaries, average allowed amount, or overall Medicare FFS footprint.

National code rankState code rankProviderNPIMarketServicesBeneficiariesAverage Medicare allowedPlace of serviceProvider total services
#1,576Filter by stateLili Kaplan1518017276King Of Prussia, PA3731$70.23O9,205
#1,577Filter by stateGary Fish1588663389Dallas, TX3731$69.95O19,283
#1,578Filter by stateBoban A Joseph1639109101Pasadena, CA3716$70.93O2,034
#1,579Filter by stateBeatrice R Whitaker1740457258New York, NY3711$69.95O1,255
#1,580Filter by stateJohn A Parchue1811993934Fort Worth, TX3715$70.78O13,058
#1,581Filter by stateDaniel M King1841226073Red Bluff, CA3716$70.51O2,216
#1,582Filter by stateXihui Lin1871868190Detroit, MI3724$72.37O3,855
#1,583Filter by stateFatima Ahmad1952560963Effingham, IL3720$64.63O29,435
#1,584Filter by stateMichael C Heeg1972555142Torrance, CA3729$70.75O20,331
#1,585Filter by stateJoseph Qureshi1992971519Laurel, MD3719$70.73O4,947
#1,586Filter by stateAngela L Bosjolie1093891608Waterbury, CT3611$70.80O4,566
#1,587Filter by stateMark R Comaratta1144286121Bozeman, MT3630$69.76O427
#1,588Filter by statePuneet S Braich1184908691Cheektowaga, NY3617$69.58O1,717
#1,589Filter by stateTatyana Serednyakova1386961548Warwick, RI3611$71.24O12,887
#1,590Filter by stateAndrew J Mcclellan1588935217Dallas, TX3626$58.67O60,000
#1,591Filter by stateJohn E Legarreta1629395892Williamsville, NY3613$71.05O3,609
#1,592Filter by stateGerard E Ardron1689709982Sonora, CA3611$70.84O12,075
#1,593Filter by stateKarim Rasheed1750312088Templeton, CA3615$70.87O4,943
#1,594Filter by stateSameena Khan1801896030Queens Village, NY3614$71.33O528
#1,595Filter by stateVinod K Jindal1861402612Oxford, NC3624$71.41O5,508
#1,596Filter by stateQuraish Ghadiali1942591433Chicago, IL3611$70.90O1,860
#1,597Filter by stateJoseph A Deluca1205916509Lyndhurst, NJ3516$71.05O4,815
#1,598Filter by stateCarl F Hyder1245371129Medford, NJ3512$71.24O12,210
#1,599Filter by stateStevens Y Kim1437258183Stockton, CA3516$71.36O4,442
#1,600Filter by stateKevin C Chen1447518832Salinas, CA3526$66.70O12,184

Full code-specific utilization ranking

Request the full provider utilization export, named peer comparison, and code-specific market scan for this CPT/HCPCS code.

Request full code benchmark